Time;durP1;ratioP1;P1;durP2;ratioP2;P2;SDS_P1;SDS_P2;PMS_P1;PMS_P2;Temp;Humidity;BMP_temperature;BMP_pressure;BME280_temperature;BME280_humidity;BME280_pressure;Samples;Min_cycle;Max_cycle;Signal;HPM_P1;HPM_P2
2023/07/11 00:02:09;;;;;;;;;21.80;21.80;;;;;24.72;35.61;99534.41;5071628;28;8863;-74
2023/07/11 00:04:38;;;;;;;;;20.25;20.00;;;;;24.69;35.73;99525.72;5086289;28;8847;-76
2023/07/11 00:07:07;;;;;;;;;19.60;18.80;;;;;24.70;35.70;99522.94;5091321;28;8851;-75
2023/07/11 00:09:36;;;;;;;;;24.00;21.75;;;;;24.70;35.59;99522.09;5090386;28;8843;-76
2023/07/11 00:12:08;;;;;;;;;24.40;23.20;;;;;24.72;35.93;99520.13;5091923;28;8840;-75
2023/07/11 00:14:36;;;;;;;;;22.00;22.00;;;;;24.69;36.01;99513.13;5074652;28;8919;-76
2023/07/11 00:17:06;;;;;;;;;24.40;21.20;;;;;24.68;36.04;99514.13;5070838;28;8877;-76
2023/07/11 00:19:47;;;;;;;;;23.60;22.40;;;;;24.72;35.95;99517.44;5059139;28;8862;-76
2023/07/11 00:22:17;;;;;;;;;25.00;23.80;;;;;24.58;36.15;99517.69;5071043;28;8866;-75
2023/07/11 00:24:46;;;;;;;;;23.40;22.20;;;;;24.42;36.63;99518.06;5034887;28;9612;-76
2023/07/11 00:27:18;;;;;;;;;25.40;21.00;;;;;24.44;36.78;99513.41;5071039;28;8862;-75
2023/07/11 00:29:47;;;;;;;;;21.60;21.20;;;;;24.38;36.39;99509.38;5070812;28;8893;-77
2023/07/11 00:32:16;;;;;;;;;24.00;22.80;;;;;24.34;36.69;99511.47;5070474;28;8852;-77
2023/07/11 00:34:45;;;;;;;;;20.00;19.00;;;;;24.37;36.37;99518.41;5070737;28;8851;-75
2023/07/11 00:37:15;;;;;;;;;25.20;25.20;;;;;24.34;36.95;99513.31;5084041;28;8831;-75
2023/07/11 00:39:44;;;;;;;;;24.20;23.60;;;;;24.34;36.53;99508.78;5055705;28;8902;-76
2023/07/11 00:42:13;;;;;;;;;20.40;20.40;;;;;24.36;36.88;99516.72;5085799;28;8852;-77
2023/07/11 00:44:55;;;;;;;;;21.40;20.80;;;;;24.46;37.07;99520.38;5035167;28;8858;-76
2023/07/11 00:47:26;;;;;;;;;20.40;20.00;;;;;24.32;36.78;99523.28;5069024;28;8842;-76
2023/07/11 00:50:02;;;;;;;;;21.20;20.80;;;;;24.45;36.93;99520.47;5070712;28;8858;-75
2023/07/11 00:52:34;;;;;;;;;23.20;21.40;;;;;24.41;37.02;99510.97;5076302;28;8839;-75
2023/07/11 00:55:09;;;;;;;;;18.40;18.00;;;;;24.46;36.68;99519.53;5088517;28;8937;-77
2023/07/11 00:57:44;;;;;;;;;23.00;23.00;;;;;24.49;36.54;99516.56;5079039;28;8826;-77
2023/07/11 01:00:15;;;;;;;;;24.75;23.75;;;;;24.41;36.46;99516.34;5070285;28;8850;-76
2023/07/11 01:02:44;;;;;;;;;27.75;26.75;;;;;24.33;36.98;99516.94;5070214;28;8846;-77
2023/07/11 01:05:12;;;;;;;;;20.50;18.00;;;;;24.35;37.02;99523.91;5068706;28;8870;-76
2023/07/11 01:07:42;;;;;;;;;21.50;20.25;;;;;24.35;36.62;99515.00;5075112;28;8855;-76
2023/07/11 01:10:11;;;;;;;;;20.00;19.00;;;;;24.32;36.85;99513.41;5090052;28;8974;-75
2023/07/11 01:12:46;;;;;;;;;21.75;21.75;;;;;24.36;37.19;99519.41;5090281;28;8856;-76
2023/07/11 01:15:17;;;;;;;;;22.75;22.00;;;;;24.36;36.98;99508.66;5079470;28;8873;-76
2023/07/11 01:17:46;;;;;;;;;20.80;20.80;;;;;24.37;36.90;99507.66;5034350;28;8927;-76
2023/07/11 01:20:17;;;;;;;;;21.80;20.40;;;;;24.23;37.11;99513.28;5052254;28;9937;-76
2023/07/11 01:22:49;;;;;;;;;21.25;20.25;;;;;24.26;36.91;99515.72;5069734;28;8854;-75
2023/07/11 01:25:18;;;;;;;;;23.60;21.00;;;;;24.22;37.03;99511.56;5080950;28;8920;-75
2023/07/11 01:27:48;;;;;;;;;21.60;21.60;;;;;24.16;37.13;99513.75;5090443;28;8860;-76
2023/07/11 01:30:19;;;;;;;;;20.25;18.50;;;;;24.12;37.16;99514.94;5070805;28;8974;-75
2023/07/11 01:32:49;;;;;;;;;21.40;21.00;;;;;24.13;36.94;99511.31;5090017;28;8832;-75
2023/07/11 01:35:18;;;;;;;;;24.40;22.80;;;;;24.10;37.29;99510.69;5071958;28;8888;-76
2023/07/11 01:37:49;;;;;;;;;20.80;20.60;;;;;24.05;37.09;99502.97;5068480;28;8970;-75
2023/07/11 01:40:19;;;;;;;;;24.80;24.40;;;;;24.07;37.05;99505.53;5067858;28;8888;-75
2023/07/11 01:42:48;;;;;;;;;23.80;23.80;;;;;24.05;37.46;99500.28;5075986;28;8839;-75
2023/07/11 01:45:17;;;;;;;;;24.00;23.20;;;;;24.05;37.12;99507.50;5089559;28;8946;-73
2023/07/11 01:47:46;;;;;;;;;21.60;21.60;;;;;23.99;37.28;99492.72;5082257;28;8842;-75
2023/07/11 01:50:15;;;;;;;;;21.20;21.20;;;;;23.97;37.16;99490.13;5069037;28;9763;-76
2023/07/11 01:52:44;;;;;;;;;20.20;20.00;;;;;23.93;37.01;99479.78;5034291;28;8834;-75
2023/07/11 01:55:14;;;;;;;;;24.60;23.80;;;;;23.91;37.21;99487.94;5018079;28;8873;-76
2023/07/11 01:57:43;;;;;;;;;25.60;24.60;;;;;23.90;37.24;99485.38;5074754;28;8924;-75
2023/07/11 02:00:14;;;;;;;;;24.00;23.60;;;;;23.91;37.25;99482.56;5088509;28;8860;-75
2023/07/11 02:02:52;;;;;;;;;25.00;21.00;;;;;23.90;37.07;99491.63;5089129;28;8948;-75
2023/07/11 02:05:23;;;;;;;;;26.60;25.20;;;;;23.84;37.43;99483.16;5087940;28;8847;-76
2023/07/11 02:07:52;;;;;;;;;24.20;22.40;;;;;23.82;37.37;99477.91;5067736;28;8885;-75
2023/07/11 02:10:22;;;;;;;;;23.80;21.80;;;;;23.80;37.45;99485.22;5069117;28;8847;-76
2023/07/11 02:12:51;;;;;;;;;24.60;23.20;;;;;23.81;37.26;99478.03;5075066;28;8843;-76
2023/07/11 02:15:20;;;;;;;;;25.40;23.40;;;;;23.80;37.22;99470.97;5089341;28;9100;-74
2023/07/11 02:17:49;;;;;;;;;21.40;21.40;;;;;23.82;37.00;99472.53;5078190;28;8878;-76
2023/07/11 02:20:18;;;;;;;;;24.20;23.20;;;;;23.82;37.08;99479.75;5067570;28;8882;-75
2023/07/11 02:22:47;;;;;;;;;20.80;20.60;;;;;23.78;37.18;99465.72;5068719;28;8861;-75
2023/07/11 02:25:15;;;;;;;;;25.80;22.60;;;;;23.81;37.05;99470.84;5067592;28;10044;-75
2023/07/11 02:27:46;;;;;;;;;21.40;20.20;;;;;23.77;36.95;99475.59;5033006;28;8893;-76
2023/07/11 02:30:14;;;;;;;;;24.00;22.00;;;;;23.75;37.03;99474.88;5056882;28;8865;-75
2023/07/11 02:32:43;;;;;;;;;23.60;22.20;;;;;23.74;36.86;99481.19;5088352;28;8840;-74
2023/07/11 02:35:12;;;;;;;;;23.40;23.40;;;;;23.75;36.88;99482.91;5085950;28;8890;-75
2023/07/11 02:37:41;;;;;;;;;28.00;25.20;;;;;23.63;37.07;99483.00;5088620;28;8848;-75
2023/07/11 02:40:11;;;;;;;;;24.00;23.00;;;;;23.66;36.69;99486.31;5053976;28;8836;-75
2023/07/11 02:42:40;;;;;;;;;24.40;23.40;;;;;23.64;36.77;99490.94;5088411;28;8840;-74
2023/07/11 02:45:11;;;;;;;;;22.20;21.80;;;;;23.70;36.92;99493.16;5078957;28;8886;-75
2023/07/11 02:47:41;;;;;;;;;23.40;23.40;;;;;23.68;36.43;99495.09;5076888;28;8835;-75
2023/07/11 02:50:10;;;;;;;;;22.20;22.20;;;;;23.65;36.77;99489.09;5088468;28;8856;-75
2023/07/11 02:52:39;;;;;;;;;25.60;25.20;;;;;23.70;36.53;99485.09;5086310;28;8843;-75
2023/07/11 02:55:09;;;;;;;;;22.60;22.00;;;;;23.71;36.60;99494.00;5067806;28;8993;-75
2023/07/11 02:57:40;;;;;;;;;22.60;20.60;;;;;23.75;36.43;99476.66;5049989;28;8873;-76
2023/07/11 03:00:12;;;;;;;;;23.60;22.40;;;;;23.79;36.58;99483.53;5068560;28;8866;-75
2023/07/11 03:02:41;;;;;;;;;22.40;20.80;;;;;23.77;36.43;99482.78;5065557;28;8927;-75
2023/07/11 03:05:10;;;;;;;;;21.80;21.80;;;;;23.69;36.24;99490.56;5079356;28;8969;-76
2023/07/11 03:07:39;;;;;;;;;23.20;23.00;;;;;23.74;36.38;99488.41;5088704;28;8847;-76
2023/07/11 03:10:08;;;;;;;;;22.00;22.00;;;;;23.74;36.01;99491.94;5068742;28;8878;-75
2023/07/11 03:12:37;;;;;;;;;25.40;24.80;;;;;23.78;35.86;99501.44;5067653;28;9596;-75
2023/07/11 03:15:07;;;;;;;;;22.80;22.80;;;;;23.82;35.80;99491.34;5068008;28;9619;-75
2023/07/11 03:17:37;;;;;;;;;20.80;20.80;;;;;23.85;35.61;99483.06;5031751;28;8862;-75
2023/07/11 03:20:07;;;;;;;;;26.60;26.60;;;;;23.84;35.99;99486.69;5056706;28;8880;-76
2023/07/11 03:22:36;;;;;;;;;26.50;26.50;;;;;23.87;35.75;99480.25;5047983;28;8871;-75
2023/07/11 03:25:06;;;;;;;;;25.20;23.20;;;;;23.84;35.81;99486.69;5057790;28;8859;-74
2023/07/11 03:27:35;;;;;;;;;22.40;22.00;;;;;23.77;35.72;99486.34;5067926;28;8890;-74
2023/07/11 03:30:04;;;;;;;;;24.20;24.20;;;;;23.81;35.66;99488.75;5067937;28;8842;-76
2023/07/11 03:32:33;;;;;;;;;27.40;26.80;;;;;23.84;35.55;99486.69;5067830;28;9512;-74
2023/07/11 03:35:04;;;;;;;;;21.80;20.60;;;;;23.86;35.15;99498.16;5067673;28;8854;-75
2023/07/11 03:37:33;;;;;;;;;25.00;25.00;;;;;23.84;35.22;99515.38;5067917;28;8937;-75
2023/07/11 03:40:02;;;;;;;;;24.40;24.20;;;;;23.90;35.45;99514.91;5054363;28;8953;-75
2023/07/11 03:42:31;;;;;;;;;23.80;22.20;;;;;23.92;35.15;99508.47;5047945;28;8961;-75
2023/07/11 03:45:01;;;;;;;;;24.20;23.20;;;;;23.94;35.24;99513.69;5047521;28;8857;-76
2023/07/11 03:47:31;;;;;;;;;41.50;33.75;;;;;23.96;35.06;99515.28;5062400;28;9186;-75
2023/07/11 03:50:00;;;;;;;;;22.80;22.80;;;;;24.01;35.11;99512.25;5067432;28;8997;-75
2023/07/11 03:52:30;;;;;;;;;27.20;27.20;;;;;24.06;35.07;99507.38;5074285;28;8840;-75
2023/07/11 03:54:59;;;;;;;;;21.80;21.60;;;;;24.14;35.48;99510.34;5084229;28;8936;-74
2023/07/11 03:57:28;;;;;;;;;23.60;23.60;;;;;24.12;34.97;99504.19;5067353;28;8854;-75
2023/07/11 03:59:57;;;;;;;;;27.40;24.80;;;;;24.14;35.11;99501.44;5067328;28;8963;-75
2023/07/11 04:02:26;;;;;;;;;19.00;18.00;;;;;24.18;35.31;99499.34;5067297;28;8866;-75
2023/07/11 04:04:55;;;;;;;;;22.40;20.20;;;;;24.19;34.79;99493.00;5067397;28;9686;-75
2023/07/11 04:07:23;;;;;;;;;22.40;22.40;;;;;24.25;34.51;99485.31;5050928;28;8950;-75
2023/07/11 04:09:53;;;;;;;;;25.00;25.00;;;;;24.30;34.58;99483.13;5072625;28;8852;-75
2023/07/11 04:12:22;;;;;;;;;22.80;21.20;;;;;24.38;34.46;99479.84;5087330;28;8855;-76
2023/07/11 04:14:51;;;;;;;;;22.40;20.80;;;;;24.47;34.20;99489.84;5100544;28;8832;-75
2023/07/11 04:17:20;;;;;;;;;30.00;29.25;;;;;24.59;34.04;99488.00;5052038;28;8984;-77
2023/07/11 04:19:49;;;;;;;;;28.25;27.75;;;;;24.63;34.09;99497.53;5087163;28;8879;-75
2023/07/11 04:22:19;;;;;;;;;30.00;29.75;;;;;24.69;33.99;99507.75;5087570;28;8862;-76
2023/07/11 04:24:48;;;;;;;;;35.50;32.75;;;;;24.72;34.06;99504.84;5082569;28;8947;-76
2023/07/11 04:27:18;;;;;;;;;21.80;20.80;;;;;24.80;33.32;99509.63;5066544;28;8862;-76
2023/07/11 04:29:47;;;;;;;;;18.20;18.00;;;;;24.81;33.83;99505.97;5048281;28;8871;-75
2023/07/11 04:32:16;;;;;;;;;23.00;22.20;;;;;24.78;33.48;99499.97;5040267;28;8880;-75
2023/07/11 04:34:45;;;;;;;;;25.20;24.60;;;;;24.87;33.44;99501.94;5061721;28;9095;-75
2023/07/11 04:37:14;;;;;;;;;22.40;22.40;;;;;24.90;33.83;99501.66;5068801;28;8838;-75
2023/07/11 04:39:43;;;;;;;;;24.20;23.40;;;;;24.96;33.53;99503.00;5064999;28;8870;-75
2023/07/11 04:42:12;;;;;;;;;22.40;22.40;;;;;25.02;34.31;99497.09;5068705;28;8870;-75
2023/07/11 04:44:42;;;;;;;;;23.75;23.25;;;;;25.05;33.74;99496.84;5058514;28;8959;-75
2023/07/11 04:47:11;;;;;;;;;23.60;23.60;;;;;25.12;34.03;99496.22;5066621;28;8931;-75
2023/07/11 04:49:40;;;;;;;;;22.40;22.40;;;;;25.21;33.73;99496.44;5061210;28;8870;-74
2023/07/11 04:52:09;;;;;;;;;25.80;23.40;;;;;25.26;33.85;99496.91;5048930;28;8866;-74
2023/07/11 04:54:38;;;;;;;;;22.80;22.40;;;;;25.21;33.54;99502.69;5070211;28;8850;-75
2023/07/11 04:57:07;;;;;;;;;24.00;22.40;;;;;25.29;33.31;99502.03;5070282;28;8866;-76
2023/07/11 04:59:35;;;;;;;;;24.00;23.60;;;;;25.34;33.38;99499.84;5063024;28;8866;-77
2023/07/11 05:02:06;;;;;;;;;24.40;23.80;;;;;25.43;33.50;99506.28;5030579;28;8994;-76
2023/07/11 05:04:35;;;;;;;;;23.40;23.40;;;;;25.51;33.23;99499.28;5048725;28;8869;-73
2023/07/11 05:07:04;;;;;;;;;23.80;23.40;;;;;25.53;33.15;99504.53;5049584;28;8860;-75
2023/07/11 05:09:33;;;;;;;;;23.00;23.00;;;;;25.58;33.13;99506.84;5049607;28;8865;-76
2023/07/11 05:12:18;;;;;;;;;24.40;22.60;;;;;25.58;33.15;99506.84;5064943;28;8985;-77
2023/07/11 05:14:46;;;;;;;;;21.00;21.00;;;;;25.62;33.41;99510.97;5069276;28;8858;-75
2023/07/11 05:17:17;;;;;;;;;23.00;23.00;;;;;25.66;33.11;99507.91;5060147;28;8865;-75
2023/07/11 05:19:46;;;;;;;;;19.40;19.40;;;;;25.71;32.90;99505.66;5014175;28;8841;-76
2023/07/11 05:22:15;;;;;;;;;22.60;22.00;;;;;25.75;32.78;99506.25;5046546;28;8862;-76
2023/07/11 05:24:43;;;;;;;;;21.80;18.60;;;;;25.84;32.96;99512.69;5067870;28;8854;-75
2023/07/11 05:27:12;;;;;;;;;21.80;20.80;;;;;25.96;33.25;99516.19;5061975;28;8838;-76
2023/07/11 05:29:41;;;;;;;;;23.00;23.00;;;;;25.97;32.86;99513.38;5068666;28;8850;-75
2023/07/11 05:32:10;;;;;;;;;25.50;23.50;;;;;25.78;33.83;99516.75;5069166;28;8834;-74
2023/07/11 05:34:40;;;;;;;;;26.40;24.40;;;;;26.01;33.44;99513.97;5067379;28;8858;-76
2023/07/11 05:37:09;;;;;;;;;24.25;23.00;;;;;26.05;33.43;99521.63;5069868;28;9745;-75
2023/07/11 05:39:37;;;;;;;;;22.25;21.75;;;;;26.15;33.51;99520.84;5054545;28;8958;-76
2023/07/11 05:42:07;;;;;;;;;21.00;20.00;;;;;26.16;32.84;99518.03;5066621;28;8877;-76
2023/07/11 05:44:36;;;;;;;;;21.00;21.00;;;;;26.12;33.13;99521.13;5068420;28;8866;-77
2023/07/11 05:47:05;;;;;;;;;26.75;25.75;;;;;26.22;32.79;99525.56;5069174;28;8855;-76
2023/07/11 05:49:34;;;;;;;;;23.75;22.75;;;;;26.36;32.96;99516.28;5067376;28;8847;-76
2023/07/11 05:52:05;;;;;;;;;19.60;19.00;;;;;26.40;32.93;99516.84;5066456;28;8850;-76
2023/07/11 05:54:34;;;;;;;;;26.00;25.50;;;;;26.49;32.77;99524.16;5047212;28;8881;-75
2023/07/11 05:57:03;;;;;;;;;23.25;22.25;;;;;26.69;32.73;99525.09;5047692;28;8853;-75
2023/07/11 05:59:32;;;;;;;;;25.25;25.25;;;;;27.01;32.17;99524.88;5056368;28;9612;-76
2023/07/11 06:02:01;;;;;;;;;26.20;26.20;;;;;27.20;31.65;99523.25;5067391;28;8854;-75
2023/07/11 06:04:30;;;;;;;;;24.50;23.00;;;;;27.36;31.46;99520.84;5062123;28;8988;-74
2023/07/11 06:06:59;;;;;;;;;22.20;22.20;;;;;27.48;31.28;99532.38;5062352;28;8858;-76
2023/07/11 06:09:29;;;;;;;;;24.50;22.75;;;;;27.67;31.15;99527.97;5067404;28;8854;-76
2023/07/11 06:11:58;;;;;;;;;24.00;23.60;;;;;27.76;31.30;99519.00;5034267;28;8876;-74
2023/07/11 06:14:27;;;;;;;;;26.50;25.75;;;;;27.76;31.47;99522.59;5067310;28;8874;-74
2023/07/11 06:16:56;;;;;;;;;24.75;24.75;;;;;27.85;31.46;99528.09;5067705;28;8834;-75
2023/07/11 06:19:25;;;;;;;;;24.00;23.00;;;;;27.96;30.88;99520.69;5065929;28;9004;-72
2023/07/11 06:21:54;;;;;;;;;24.00;23.75;;;;;28.00;30.89;99529.34;5066868;28;8870;-71
2023/07/11 06:24:22;;;;;;;;;24.50;23.50;;;;;27.99;30.76;99531.22;5065788;28;8853;-70
2023/07/11 06:26:53;;;;;;;;;25.50;23.50;;;;;28.05;30.30;99521.66;5067139;28;8989;-71
2023/07/11 06:29:21;;;;;;;;;25.50;25.25;;;;;27.94;31.05;99519.13;5066873;28;9011;-71
2023/07/11 06:31:51;;;;;;;;;28.75;26.00;;;;;27.93;31.09;99521.00;5067039;28;8850;-72
2023/07/11 06:34:19;;;;;;;;;31.00;29.75;;;;;28.04;31.11;99519.94;5031476;28;8892;-70
2023/07/11 06:36:48;;;;;;;;;23.20;22.60;;;;;28.13;30.66;99518.25;5066777;28;8847;-71
2023/07/11 06:39:17;;;;;;;;;31.00;29.50;;;;;28.15;30.44;99511.69;5065613;28;8897;-72
2023/07/11 06:41:46;;;;;;;;;24.00;24.00;;;;;28.27;30.45;99512.41;5066841;28;8847;-73
2023/07/11 06:44:17;;;;;;;;;22.75;21.00;;;;;28.27;30.44;99508.81;5067061;28;8989;-71
2023/07/11 06:46:46;;;;;;;;;22.50;22.50;;;;;28.11;30.45;99509.47;5066783;28;8927;-72
2023/07/11 06:49:14;;;;;;;;;24.50;24.50;;;;;28.19;30.41;99507.69;5066972;28;8854;-72
2023/07/11 06:51:43;;;;;;;;;25.00;25.00;;;;;28.25;30.49;99506.25;5065752;28;8839;-71
2023/07/11 06:54:12;;;;;;;;;25.25;25.00;;;;;28.44;30.01;99513.44;5066739;28;8908;-72
2023/07/11 06:56:41;;;;;;;;;26.25;21.75;;;;;28.68;30.03;99517.50;5066649;28;8869;-72
2023/07/11 06:59:09;;;;;;;;;26.75;26.75;;;;;28.69;29.97;99511.97;5066592;28;8882;-71
2023/07/11 07:01:40;;;;;;;;;22.75;21.75;;;;;28.98;30.17;99510.94;5067116;28;8944;-71
2023/07/11 07:04:09;;;;;;;;;23.50;23.00;;;;;29.16;29.93;99508.28;5066064;28;8976;-71
2023/07/11 07:06:38;;;;;;;;;23.25;23.25;;;;;29.33;29.80;99509.28;5066441;28;8846;-70
2023/07/11 07:09:07;;;;;;;;;23.75;23.75;;;;;29.51;29.23;99503.84;5066668;28;9025;-70
2023/07/11 07:11:37;;;;;;;;;25.25;25.00;;;;;29.24;29.49;99505.66;5066815;28;8854;-70
2023/07/11 07:14:08;;;;;;;;;25.50;24.75;;;;;29.48;29.62;99502.31;5047513;28;9634;-71
2023/07/11 07:16:40;;;;;;;;;22.50;22.50;;;;;29.73;29.02;99503.41;5065455;28;8862;-74
2023/07/11 07:19:12;;;;;;;;;22.25;21.00;;;;;29.96;28.73;99505.59;5030850;28;8858;-71
2023/07/11 07:21:41;;;;;;;;;29.00;27.25;;;;;28.99;29.39;99501.81;5065183;28;8839;-71
2023/07/11 07:24:09;;;;;;;;;28.50;27.50;;;;;29.40;28.91;99496.81;5067023;28;8865;-80
2023/07/11 07:26:39;;;;;;;;;26.50;26.50;;;;;29.24;29.07;99493.97;5065998;28;8923;-80
2023/07/11 07:29:07;;;;;;;;;26.00;25.50;;;;;29.62;29.49;99497.34;5066774;28;9024;-81
2023/07/11 07:31:37;;;;;;;;;29.00;27.00;;;;;29.37;28.99;99508.81;5015628;28;9045;-81
2023/07/11 07:34:08;;;;;;;;;27.25;27.25;;;;;28.57;29.77;99503.16;5049276;28;8851;-82
2023/07/11 07:36:38;;;;;;;;;28.25;27.25;;;;;28.45;30.04;99508.91;5065605;28;8860;-81
2023/07/11 07:39:07;;;;;;;;;25.50;25.25;;;;;28.63;29.82;99509.84;5031425;28;8889;-83
2023/07/11 07:41:36;;;;;;;;;24.25;22.50;;;;;28.40;29.96;99506.63;5065773;28;8952;-83
2023/07/11 07:44:05;;;;;;;;;26.00;24.75;;;;;28.88;30.09;99507.44;5049596;28;8847;-82
2023/07/11 07:46:34;;;;;;;;;23.50;22.00;;;;;29.26;29.62;99506.34;5049755;28;8834;-84
2023/07/11 07:49:04;;;;;;;;;26.50;26.25;;;;;29.51;29.31;99506.56;5050171;28;8957;-82
2023/07/11 07:51:37;;;;;;;;;36.00;32.25;;;;;29.09;29.74;99504.44;5076525;28;8874;-84
2023/07/11 07:54:06;;;;;;;;;23.75;22.50;;;;;27.86;31.54;99511.75;5070624;28;8835;-81
2023/07/11 07:56:36;;;;;;;;;25.50;25.50;;;;;28.18;30.61;99510.56;5068953;28;8878;-78
2023/07/11 07:59:04;;;;;;;;;23.50;23.50;;;;;27.72;32.19;99512.19;5030463;28;8862;-80
2023/07/11 08:01:33;;;;;;;;;30.00;29.00;;;;;27.76;31.79;99509.06;5065085;28;8901;-77
2023/07/11 08:04:02;;;;;;;;;26.25;26.25;;;;;28.41;30.86;99497.53;5066297;28;8892;-78
2023/07/11 08:06:31;;;;;;;;;30.50;29.25;;;;;28.56;30.66;99498.75;5069554;28;8927;-76
2023/07/11 08:09:01;;;;;;;;;23.25;23.25;;;;;28.38;30.49;99505.94;5067574;28;8854;-76
2023/07/11 08:11:31;;;;;;;;;23.25;23.25;;;;;27.93;29.86;99502.09;5068436;28;8847;-77
2023/07/11 08:13:59;;;;;;;;;24.00;24.00;;;;;28.32;30.39;99503.84;5069892;28;8870;-76
2023/07/11 08:16:29;;;;;;;;;30.00;28.75;;;;;27.88;30.02;99508.91;5034981;28;8858;-76
2023/07/11 08:19:04;;;;;;;;;28.50;27.00;;;;;28.08;30.82;99507.00;5070109;28;9083;-78
2023/07/11 08:21:36;;;;;;;;;29.25;27.75;;;;;27.54;30.59;99499.38;5069699;28;8873;-78
2023/07/11 08:24:07;;;;;;;;;27.75;26.50;;;;;27.73;30.33;99512.06;5070052;28;8908;-77
2023/07/11 08:26:36;;;;;;;;;27.50;25.00;;;;;27.79;29.85;99508.75;5034319;28;8881;-78
2023/07/11 08:29:05;;;;;;;;;28.25;28.25;;;;;27.20;30.61;99507.91;5067130;28;8870;-79
2023/07/11 08:31:52;;;;;;;;;32.00;29.75;;;;;27.31;30.71;99504.22;5050768;28;8846;-78
2023/07/11 08:34:21;;;;;;;;;28.75;28.00;;;;;27.26;31.05;99501.09;5066956;28;9053;-79
2023/07/11 08:36:50;;;;;;;;;30.25;29.00;;;;;27.85;30.04;99504.63;5066864;28;8928;-78
2023/07/11 08:39:20;;;;;;;;;27.50;27.50;;;;;28.09;29.58;99495.22;5050040;28;8882;-78
2023/07/11 08:41:50;;;;;;;;;31.25;29.25;;;;;27.84;29.88;99502.94;5067584;28;8850;-79
2023/07/11 08:44:27;;;;;;;;;30.00;27.25;;;;;28.02;29.62;99505.75;5050436;28;9081;-78
2023/07/11 08:47:03;;;;;;;;;29.50;29.00;;;;;28.12;28.18;99505.75;5050310;28;8862;-78
2023/07/11 08:49:37;;;;;;;;;22.75;22.75;;;;;28.38;27.57;99493.28;5067103;28;9410;-78
2023/07/11 08:52:10;;;;;;;;;24.00;23.50;;;;;28.27;27.64;99500.72;5067096;28;8955;-77
2023/07/11 08:54:50;;;;;;;;;30.75;29.75;;;;;27.98;28.29;99497.06;5017125;28;8855;-77
2023/07/11 08:57:22;;;;;;;;;24.25;24.25;;;;;28.67;27.87;99499.56;4999499;28;9543;-78
2023/07/11 09:00:00;;;;;;;;;30.00;29.00;;;;;27.99;28.31;99504.19;5049553;28;8881;-76
2023/07/11 09:02:39;;;;;;;;;28.00;26.50;;;;;28.60;27.96;99499.31;5059100;28;8942;-78
2023/07/11 09:05:13;;;;;;;;;28.25;26.75;;;;;28.11;27.82;99496.78;5066333;28;9466;-78
2023/07/11 09:07:44;;;;;;;;;28.75;28.00;;;;;27.85;28.98;99499.22;5034683;28;9584;-78
2023/07/11 09:10:38;;;;;;;;;31.00;29.00;;;;;28.12;28.26;99497.63;5068927;28;8893;-78
2023/07/11 09:13:28;;;;;;;;;28.75;28.25;;;;;28.60;27.25;99497.44;5069252;28;8854;-78
2023/07/11 09:16:07;;;;;;;;;26.25;25.25;;;;;28.40;27.49;99496.69;5066556;28;8854;-79
2023/07/11 09:18:45;;;;;;;;;26.50;25.50;;;;;28.31;27.41;99497.59;5068930;28;8846;-78
2023/07/11 09:21:19;;;;;;;;;28.25;26.25;;;;;28.19;27.84;99498.75;5069056;28;8885;-79
2023/07/11 09:23:55;;;;;;;;;26.50;26.50;;;;;28.05;27.61;99496.50;5068347;28;8871;-80
2023/07/11 09:26:39;;;;;;;;;21.50;21.50;;;;;28.25;26.73;99498.16;5068631;28;8854;-80
2023/07/11 09:29:08;;;;;;;;;23.25;22.75;;;;;28.42;26.27;99496.53;5080830;28;8861;-80
2023/07/11 09:31:41;;;;;;;;;26.25;25.75;;;;;28.24;27.29;99493.75;5059523;28;8876;-78
2023/07/11 09:34:20;;;;;;;;;24.25;24.25;;;;;28.44;26.07;99497.22;5016333;28;8889;-77
2023/07/11 09:36:51;;;;;;;;;26.00;26.00;;;;;28.94;26.69;99493.31;5068616;28;8884;-79
2023/07/11 09:39:29;;;;;;;;;26.00;24.25;;;;;28.76;26.93;99487.84;5068509;28;8838;-79
2023/07/11 09:42:06;;;;;;;;;24.25;23.50;;;;;28.30;27.58;99489.63;5068867;28;8894;-80
2023/07/11 09:44:36;;;;;;;;;26.75;26.75;;;;;28.98;26.78;99483.88;5068761;28;8868;-77
2023/07/11 09:47:17;;;;;;;;;26.50;24.00;;;;;29.64;26.17;99479.09;5069134;28;8869;-79
2023/07/11 09:49:49;;;;;;;;;26.75;22.50;;;;;29.99;26.28;99478.16;5067241;28;8885;-78
2023/07/11 09:52:26;;;;;;;;;23.75;22.75;;;;;30.23;25.41;99477.47;5068095;28;8875;-80
2023/07/11 09:54:57;;;;;;;;;25.75;25.75;;;;;30.61;25.48;99483.41;5068166;28;8847;-78
2023/07/11 09:57:44;;;;;;;;;23.50;23.50;;;;;30.88;24.04;99485.06;5068063;28;9689;-74
2023/07/11 10:00:16;;;;;;;;;24.75;24.75;;;;;30.46;24.79;99477.75;5067727;28;8846;-74
2023/07/11 10:02:51;;;;;;;;;25.75;25.75;;;;;30.86;24.83;99470.81;5067273;28;8874;-76
2023/07/11 10:05:25;;;;;;;;;25.50;25.25;;;;;30.96;24.03;99484.25;5067889;28;8831;-75
2023/07/11 10:08:01;;;;;;;;;23.50;23.25;;;;;29.74;25.61;99474.44;5068024;28;8885;-77
2023/07/11 10:10:30;;;;;;;;;23.00;21.75;;;;;30.29;25.51;99478.69;5067667;28;8951;-76
2023/07/11 10:13:10;;;;;;;;;25.75;24.00;;;;;29.68;25.50;99478.63;5067739;28;8892;-75
2023/07/11 10:16:00;;;;;;;;;27.25;26.25;;;;;29.70;25.78;99475.78;5066765;28;8923;-74
2023/07/11 10:18:31;;;;;;;;;27.00;26.75;;;;;29.47;25.83;99478.09;5067998;28;8910;-76
2023/07/11 10:21:12;;;;;;;;;23.00;22.50;;;;;29.66;26.28;99471.66;5067392;28;8899;-77
2023/07/11 10:23:43;;;;;;;;;23.00;23.00;;;;;29.48;24.82;99466.25;5066870;28;8846;-75
2023/07/11 10:26:20;;;;;;;;;20.75;20.00;;;;;29.18;24.04;99466.50;5067666;28;8897;-76
2023/07/11 10:28:58;;;;;;;;;21.75;21.75;;;;;29.29;25.66;99464.56;5067475;28;8899;-72
2023/07/11 10:31:36;;;;;;;;;29.75;27.50;;;;;29.08;27.58;99457.56;5067498;28;8846;-75
2023/07/11 10:34:13;;;;;;;;;30.75;29.25;;;;;29.41;27.49;99457.06;5067507;28;8904;-75
2023/07/11 10:36:46;;;;;;;;;27.25;25.25;;;;;29.83;26.60;99457.22;5067496;28;8866;-72
2023/07/11 10:39:20;;;;;;;;;26.25;26.25;;;;;29.52;27.13;99446.84;5067585;28;8866;-73
2023/07/11 10:41:56;;;;;;;;;33.75;30.25;;;;;29.74;27.12;99458.19;5067404;28;8847;-72
2023/07/11 10:44:34;;;;;;;;;20.25;20.25;;;;;29.79;26.60;99453.16;5067202;28;8870;-72
2023/07/11 11:44:02;;;;;;;;;26.50;25.00;;;;;33.20;22.32;99443.66;5068926;28;8802;-73
2023/07/11 11:46:34;;;;;;;;;20.00;18.00;;;;;32.14;22.88;99436.88;5070455;28;9631;-72
2023/07/11 11:49:08;;;;;;;;;22.00;21.50;;;;;31.58;23.25;99443.06;5070177;28;8870;-72
2023/07/11 11:51:57;;;;;;;;;20.00;20.00;;;;;31.17;23.78;99434.91;5069901;28;8859;-73
2023/07/11 11:54:26;;;;;;;;;28.00;28.00;;;;;31.34;24.03;99440.38;5070250;28;8870;-73
2023/07/11 11:56:59;;;;;;;;;22.75;22.25;;;;;31.82;23.55;99434.03;5070437;28;9612;-73
2023/07/11 11:59:29;;;;;;;;;22.00;22.00;;;;;31.72;23.84;99436.09;5068619;28;9089;-73
2023/07/11 12:02:04;;;;;;;;;22.50;21.50;;;;;32.43;23.13;99431.66;5069826;28;9678;-72
2023/07/11 12:05:01;;;;;;;;;20.50;20.00;;;;;32.15;23.32;99427.72;5057949;28;8854;-73
2023/07/11 12:07:34;;;;;;;;;21.00;21.00;;;;;32.42;22.64;99416.34;5025638;28;8853;-72
2023/07/11 12:10:20;;;;;;;;;20.50;20.50;;;;;32.32;22.55;99425.75;5026825;28;8856;-73
2023/07/11 12:13:22;;;;;;;;;22.25;20.50;;;;;32.77;21.98;99419.59;5027148;28;8908;-73
2023/07/11 12:15:55;;;;;;;;;16.25;15.75;;;;;33.38;21.55;99419.66;5027015;28;8875;-74
2023/07/11 12:18:39;;;;;;;;;23.25;22.00;;;;;33.55;21.18;99422.28;4997387;28;8837;-74
2023/07/11 12:21:32;;;;;;;;;20.00;19.00;;;;;34.12;20.75;99409.91;5027137;28;8906;-73
2023/07/11 12:24:26;;;;;;;;;22.00;21.25;;;;;34.96;20.09;99417.66;5014598;28;8859;-75
2023/07/11 12:26:58;;;;;;;;;21.50;21.50;;;;;34.47;21.32;99407.44;5014063;28;8948;-73
2023/07/11 12:29:39;;;;;;;;;21.00;21.00;;;;;34.51;21.16;99411.47;5027023;28;8976;-74
2023/07/11 12:32:37;;;;;;;;;22.75;22.00;;;;;34.67;20.85;99407.69;5027184;28;8845;-75
2023/07/11 12:35:18;;;;;;;;;19.75;19.50;;;;;34.51;20.54;99406.00;4987406;28;8842;-74
2023/07/11 12:37:56;;;;;;;;;17.25;17.25;;;;;34.12;21.01;99404.47;4984678;28;8981;-72
2023/07/11 12:40:32;;;;;;;;;22.75;22.00;;;;;33.30;22.04;99397.06;4925938;28;8863;-71
2023/07/11 12:43:02;;;;;;;;;18.50;16.25;;;;;33.58;21.78;99400.06;4982173;28;8872;-70